Terminal Aerodrome Forecast
Issued by NWS Omaha/Valley, NE

Home | Current Version | Previous Version | Text Only | Print | Product List | Glossary Off
Versions: 1 2 3 4 5 6 7 8 9 10 11 12 13 14 15 16 17 18

000
FTUS43 KOAX 141720
TAFOFK
TAF
KOFK 141720Z 1418/1518 32011KT P6SM SCT070 BKN200
     FM142000 32012G20KT P6SM BKN040
      TEMPO 1421/1423 -RASN
     FM150100 34010KT P6SM BKN050
     FM150400 VRB04KT P6SM SCT250=

USA.gov is the U.S. government's official web portal to all federal, state and local government web resources and services.